Terminal Aerodrome Forecast
Issued by NWS Riverton, WY

Home | Current Version | Previous Version | Text Only | Print | Product List | Glossary On
Versions: 1 2 3 4 5 6 7 8 9 10 11 12 13
000
FTUS45 KRIW 301130
TAFRIW
TAF
KRIW 301130Z 3012/3112 28010KT P6SM BKN110
     FM301500 25006KT P6SM SCT110
     FM302200 30010G15KT P6SM VCSH SCT070 BKN150
     FM310100 01015G25KT P6SM VCSH SCT050 BKN100
     FM310300 01014G20KT P6SM BKN060
     FM310600 02009KT P6SM BKN045=

USA.gov is the U.S. government's official web portal to all federal, state and local government web resources and services.